Time;durP1;ratioP1;P1;durP2;ratioP2;P2;SDS_P1;SDS_P2;PMS_P1;PMS_P2;Temp;Humidity;BMP_temperature;BMP_pressure;BME280_temperature;BME280_humidity;BME280_pressure;Samples;Min_cycle;Max_cycle;Signal;HPM_P1;HPM_P2
2022/03/15 00:01:39;;;;;;;24.60;13.80;;;;;;;-1.30;49.75;102455.68;116937;1189;23476;-49
2022/03/15 00:04:07;;;;;;;21.70;13.30;;;;;;;-1.26;49.91;102452.83;116851;1189;23450;-61
2022/03/15 00:06:38;;;;;;;22.70;14.00;;;;;;;-1.24;49.75;102449.70;116884;1189;21884;-49
2022/03/15 00:09:07;;;;;;;21.10;13.20;;;;;;;-1.22;49.69;102452.94;116876;1189;21865;-61
2022/03/15 00:11:40;;;;;;;20.90;13.10;;;;;;;-1.23;49.74;102449.79;116817;1189;23455;-61
2022/03/15 00:14:14;;;;;;;22.20;13.90;;;;;;;-1.25;49.60;102441.94;116908;1189;23556;-50
2022/03/15 00:16:42;;;;;;;21.20;13.70;;;;;;;-1.26;49.65;102445.58;116846;1189;22971;-50
2022/03/15 00:19:11;;;;;;;22.10;14.20;;;;;;;-1.29;49.75;102439.36;116870;1189;23479;-61
2022/03/15 00:21:41;;;;;;;20.80;12.10;;;;;;;-1.30;49.66;102441.20;116886;1189;21936;-61
2022/03/15 00:24:10;;;;;;;23.80;14.50;;;;;;;-1.29;49.83;102439.23;116715;1190;23730;-61
2022/03/15 00:26:38;;;;;;;22.00;13.60;;;;;;;-1.25;49.71;102432.56;116762;1190;23483;-50
2022/03/15 00:29:07;;;;;;;20.10;13.20;;;;;;;-1.23;49.92;102426.89;116863;1189;23582;-50
2022/03/15 00:31:35;;;;;;;27.40;14.20;;;;;;;-1.22;49.88;102425.89;116832;1189;21857;-50
2022/03/15 00:34:04;;;;;;;23.40;14.90;;;;;;;-1.24;49.64;102423.39;116842;1189;23476;-61
2022/03/15 00:36:35;;;;;;;21.90;13.00;;;;;;;-1.26;49.62;102422.49;116847;1189;23494;-50
2022/03/15 00:39:04;;;;;;;25.10;14.60;;;;;;;-1.30;49.68;102422.41;116859;1189;24165;-61
2022/03/15 00:41:33;;;;;;;22.60;14.70;;;;;;;-1.35;49.79;102419.14;116957;1189;22934;-61
2022/03/15 00:44:01;;;;;;;23.60;14.30;;;;;;;-1.37;49.66;102414.86;116871;1189;21859;-50
2022/03/15 00:46:30;;;;;;;24.30;14.70;;;;;;;-1.37;49.86;102417.14;116879;1189;21945;-61
2022/03/15 00:48:59;;;;;;;25.00;14.80;;;;;;;-1.36;49.79;102413.95;116820;1189;22523;-61
2022/03/15 00:51:29;;;;;;;24.90;13.80;;;;;;;-1.32;49.60;102407.98;116875;1184;21856;-49
2022/03/15 00:53:58;;;;;;;25.50;14.90;;;;;;;-1.32;49.72;102408.88;116819;1186;24179;-50
2022/03/15 00:56:26;;;;;;;22.30;14.00;;;;;;;-1.32;49.51;102405.58;116924;1189;21846;-51
2022/03/15 00:58:55;;;;;;;20.70;12.20;;;;;;;-1.32;49.84;102406.10;116912;1189;21858;-50
2022/03/15 01:01:24;;;;;;;21.50;12.80;;;;;;;-1.32;49.52;102402.66;116970;1189;23910;-51
2022/03/15 01:03:53;;;;;;;16.90;10.90;;;;;;;-1.32;49.64;102402.13;116779;1192;22649;-50
2022/03/15 01:06:21;;;;;;;26.10;15.40;;;;;;;-1.30;49.84;102400.05;116966;1189;22814;-61
2022/03/15 01:08:50;;;;;;;23.80;14.40;;;;;;;-1.27;49.76;102399.54;116874;1188;21874;-61
2022/03/15 01:11:19;;;;;;;24.50;14.70;;;;;;;-1.23;49.91;102399.46;116835;1189;24237;-61
2022/03/15 01:13:54;;;;;;;20.10;13.50;;;;;;;-1.17;49.89;102397.80;116855;1189;23504;-61
2022/03/15 01:16:23;;;;;;;20.70;13.20;;;;;;;-1.12;49.88;102389.20;116861;1189;23460;-59
2022/03/15 01:18:51;;;;;;;24.50;14.10;;;;;;;-1.06;49.84;102388.55;116885;1189;21852;-61
2022/03/15 01:21:20;;;;;;;24.40;15.50;;;;;;;-1.01;50.00;102389.44;116823;1189;22023;-61
2022/03/15 01:23:48;;;;;;;24.90;15.60;;;;;;;-0.95;50.07;102385.17;116857;1189;21858;-61
2022/03/15 01:26:17;;;;;;;21.00;14.60;;;;;;;-0.90;50.01;102389.99;116732;1192;22968;-61
2022/03/15 01:28:45;;;;;;;23.90;14.70;;;;;;;-0.85;50.02;102387.73;116860;1189;23475;-61
2022/03/15 01:31:14;;;;;;;23.10;14.00;;;;;;;-0.81;50.07;102383.48;116884;1189;22041;-50
2022/03/15 01:33:43;;;;;;;23.90;16.00;;;;;;;-0.78;50.06;102386.80;116861;1188;22835;-61
2022/03/15 01:36:12;;;;;;;21.70;14.00;;;;;;;-0.77;50.03;102386.50;116942;1189;23478;-62
2022/03/15 01:38:40;;;;;;;23.00;14.70;;;;;;;-0.75;50.14;102387.02;116905;1189;23481;-50
2022/03/15 01:41:09;;;;;;;22.00;15.00;;;;;;;-0.73;50.11;102383.66;116849;1189;23550;-56
2022/03/15 01:43:40;;;;;;;21.40;14.40;;;;;;;-0.72;50.04;102384.46;116797;1188;22839;-60
2022/03/15 01:46:08;;;;;;;19.50;13.70;;;;;;;-0.71;49.89;102385.40;116811;1189;23483;-49
2022/03/15 01:48:37;;;;;;;24.20;14.90;;;;;;;-0.69;49.90;102377.60;117013;1188;23455;-49
2022/03/15 01:51:05;;;;;;;24.70;15.70;;;;;;;-0.67;49.84;102372.84;116836;1185;24175;-61
2022/03/15 01:53:34;;;;;;;22.90;14.50;;;;;;;-0.67;49.96;102377.02;116927;1189;23468;-50
2022/03/15 01:56:05;;;;;;;22.30;14.00;;;;;;;-0.66;49.84;102374.63;116826;1189;21886;-49
2022/03/15 01:58:33;;;;;;;25.40;14.60;;;;;;;-0.66;50.20;102379.81;116845;1188;21857;-61
2022/03/15 02:01:02;;;;;;;24.70;14.20;;;;;;;-0.66;50.04;102373.11;116882;1189;24162;-50
2022/03/15 02:03:32;;;;;;;23.00;15.30;;;;;;;-0.66;49.99;102375.85;116874;1188;22975;-61
2022/03/15 02:06:02;;;;;;;21.50;14.30;;;;;;;-0.66;50.13;102375.00;116895;1189;21864;-60
2022/03/15 02:08:30;;;;;;;22.90;15.50;;;;;;;-0.67;50.17;102373.58;116848;1188;21956;-51
2022/03/15 02:11:02;;;;;;;22.30;14.80;;;;;;;-0.67;50.06;102372.17;116923;1188;22933;-61
2022/03/15 02:13:33;;;;;;;21.10;12.70;;;;;;;-0.67;50.20;102374.73;116900;1188;23563;-50
2022/03/15 02:16:02;;;;;;;27.60;17.10;;;;;;;-0.66;50.17;102374.63;116836;1188;22157;-60
2022/03/15 02:18:36;;;;;;;27.50;16.60;;;;;;;-0.67;50.14;102374.80;116888;1189;22657;-50
2022/03/15 02:21:04;;;;;;;24.60;15.60;;;;;;;-0.67;50.08;102371.67;116917;1188;23459;-60
2022/03/15 02:23:34;;;;;;;22.30;14.80;;;;;;;-0.72;50.09;102379.08;116885;1189;24168;-49
2022/03/15 02:26:03;;;;;;;26.10;15.70;;;;;;;-0.75;50.35;102376.47;116835;1189;22979;-60
2022/03/15 02:28:31;;;;;;;29.10;17.40;;;;;;;-0.76;50.02;102377.96;116939;1188;23465;-60
2022/03/15 02:31:00;;;;;;;26.60;17.20;;;;;;;-0.77;50.17;102373.27;116877;1188;22567;-60
2022/03/15 02:33:28;;;;;;;24.80;16.50;;;;;;;-0.74;50.13;102375.17;116939;1188;21947;-61
2022/03/15 02:35:57;;;;;;;26.40;16.90;;;;;;;-0.73;50.32;102376.13;116874;1189;23491;-60
2022/03/15 02:38:26;;;;;;;26.00;16.20;;;;;;;-0.71;50.14;102372.44;116924;1188;23455;-60
2022/03/15 02:40:55;;;;;;;22.50;14.30;;;;;;;-0.68;50.30;102371.09;116799;1188;22914;-49
2022/03/15 02:43:23;;;;;;;22.60;14.10;;;;;;;-0.66;50.24;102370.69;116859;1189;24992;-50
2022/03/15 02:45:52;;;;;;;24.50;15.40;;;;;;;-0.69;50.19;102371.04;116804;1188;24163;-60
2022/03/15 02:48:21;;;;;;;25.00;15.80;;;;;;;-0.73;50.05;102375.21;116889;1185;22021;-49
2022/03/15 02:50:49;;;;;;;22.60;13.80;;;;;;;-0.80;50.13;102373.25;116870;1189;23491;-50
2022/03/15 02:53:18;;;;;;;22.40;15.30;;;;;;;-0.85;49.75;102372.88;116908;1189;23460;-60
2022/03/15 02:55:47;;;;;;;22.70;14.50;;;;;;;-0.89;50.07;102371.62;116922;1189;23450;-50
2022/03/15 02:58:15;;;;;;;24.80;15.10;;;;;;;-0.91;49.97;102373.19;116835;1189;23545;-49
2022/03/15 03:00:44;;;;;;;21.70;14.60;;;;;;;-0.93;50.02;102370.30;116972;1188;23001;-60
2022/03/15 03:03:13;;;;;;;21.40;14.60;;;;;;;-0.99;50.00;102372.16;116809;1189;22626;-60
2022/03/15 03:05:42;;;;;;;24.30;14.10;;;;;;;-1.00;50.09;102365.52;116879;1186;21865;-49
2022/03/15 03:08:12;;;;;;;17.60;11.30;;;;;;;-0.99;50.23;102363.36;116891;1188;23450;-61
2022/03/15 03:10:41;;;;;;;19.10;12.40;;;;;;;-0.99;50.00;102363.73;116933;1188;21855;-60
2022/03/15 03:13:12;;;;;;;19.40;12.90;;;;;;;-0.98;50.17;102363.73;116856;1189;23625;-60
2022/03/15 03:15:42;;;;;;;19.70;12.70;;;;;;;-0.98;50.18;102363.05;116899;1188;23453;-61
2022/03/15 03:18:10;;;;;;;18.40;11.80;;;;;;;-0.99;50.21;102368.86;116858;1189;22953;-61
2022/03/15 03:20:40;;;;;;;22.60;12.40;;;;;;;-1.00;50.26;102370.36;116881;1184;21889;-49
2022/03/15 03:23:09;;;;;;;19.50;12.30;;;;;;;-1.03;50.09;102373.77;116898;1188;23456;-50
2022/03/15 03:25:37;;;;;;;22.00;12.30;;;;;;;-1.05;50.08;102371.39;116865;1188;23478;-61
2022/03/15 03:28:08;;;;;;;20.20;12.60;;;;;;;-1.06;49.99;102374.80;116842;1189;23490;-60
2022/03/15 03:30:37;;;;;;;21.00;12.90;;;;;;;-1.07;50.20;102376.13;116761;1188;23222;-61
2022/03/15 03:33:06;;;;;;;20.40;12.70;;;;;;;-1.06;50.18;102379.07;116832;1189;22643;-49
2022/03/15 03:35:35;;;;;;;21.00;13.10;;;;;;;-1.07;50.25;102381.46;116749;1188;21861;-61
2022/03/15 03:38:05;;;;;;;21.90;13.40;;;;;;;-1.06;50.11;102376.33;116743;1188;24175;-49
2022/03/15 03:40:34;;;;;;;18.40;11.80;;;;;;;-1.05;50.08;102379.13;116938;1188;21846;-50
2022/03/15 03:43:02;;;;;;;20.20;13.30;;;;;;;-1.05;50.32;102376.08;116784;1188;23463;-61
2022/03/15 03:45:31;;;;;;;22.00;13.40;;;;;;;-1.05;50.45;102371.91;116859;1188;24206;-60
2022/03/15 03:48:01;;;;;;;22.00;13.70;;;;;;;-1.05;50.29;102367.80;116877;1188;22934;-49
2022/03/15 03:50:30;;;;;;;21.40;14.00;;;;;;;-1.04;50.32;102367.84;116831;1188;21858;-50
2022/03/15 03:52:59;;;;;;;21.80;13.20;;;;;;;-1.01;50.11;102369.91;116873;1188;21859;-49
2022/03/15 03:55:29;;;;;;;21.90;13.20;;;;;;;-1.02;50.20;102370.05;116823;1189;21853;-50
2022/03/15 03:57:58;;;;;;;18.80;12.80;;;;;;;-1.03;50.12;102365.00;116847;1184;24176;-60
2022/03/15 04:00:26;;;;;;;21.30;13.30;;;;;;;-1.02;50.18;102366.43;116976;1189;22930;-61
2022/03/15 04:03:00;;;;;;;23.50;14.50;;;;;;;-1.00;50.04;102367.75;116927;1188;21852;-61
2022/03/15 04:05:35;;;;;;;21.50;12.70;;;;;;;-0.97;50.17;102366.41;116851;1185;21896;-60
2022/03/15 04:08:04;;;;;;;23.60;13.40;;;;;;;-0.95;50.13;102363.60;116974;1189;21869;-49
2022/03/15 04:10:37;;;;;;;22.40;13.80;;;;;;;-0.94;50.38;102358.90;116828;1189;22930;-50
2022/03/15 04:13:07;;;;;;;20.50;13.10;;;;;;;-0.93;50.18;102356.88;116775;1189;21872;-50
2022/03/15 04:15:55;;;;;;;23.70;12.70;;;;;;;-0.92;50.17;102352.94;116979;1188;23604;-61
2022/03/15 04:18:25;;;;;;;20.40;11.80;;;;;;;-0.92;50.38;102353.16;116837;1189;21859;-61
2022/03/15 04:20:54;;;;;;;22.40;12.20;;;;;;;-0.90;50.13;102355.33;116892;1189;24152;-61
2022/03/15 04:23:23;;;;;;;21.60;13.80;;;;;;;-0.88;50.29;102357.34;116888;1188;23483;-61
2022/03/15 04:25:53;;;;;;;18.50;11.10;;;;;;;-0.87;50.32;102352.39;116807;1188;23450;-61
2022/03/15 04:28:21;;;;;;;23.10;13.10;;;;;;;-0.88;50.36;102349.41;116925;1189;23560;-49
2022/03/15 04:30:51;;;;;;;19.20;12.00;;;;;;;-0.90;50.33;102348.29;116927;1189;23547;-61
2022/03/15 04:33:22;;;;;;;22.10;12.80;;;;;;;-0.90;50.30;102341.20;116864;1189;21846;-50
2022/03/15 04:35:51;;;;;;;21.90;12.70;;;;;;;-0.87;50.34;102332.75;116896;1188;24178;-50
2022/03/15 04:38:19;;;;;;;19.10;10.90;;;;;;;-0.84;50.20;102329.35;116892;1189;21965;-65
2022/03/15 04:40:48;;;;;;;31.40;11.70;;;;;;;-0.80;50.37;102325.64;116856;1189;23510;-62
2022/03/15 04:43:17;;;;;;;20.00;11.20;;;;;;;-0.75;50.65;102329.60;116924;1184;24191;-50
2022/03/15 04:45:46;;;;;;;20.60;12.40;;;;;;;-0.69;50.54;102331.19;116912;1189;21857;-51
2022/03/15 04:48:15;;;;;;;20.80;11.50;;;;;;;-0.63;50.66;102330.34;116909;1189;21861;-64
2022/03/15 04:50:44;;;;;;;19.80;11.30;;;;;;;-0.59;50.61;102331.34;116908;1189;23447;-63
2022/03/15 04:53:13;;;;;;;19.50;12.20;;;;;;;-0.52;50.58;102330.00;116932;1189;23477;-51
2022/03/15 04:55:42;;;;;;;18.80;11.00;;;;;;;-0.47;50.68;102329.29;116926;1188;21847;-61
2022/03/15 04:58:11;;;;;;;23.80;11.90;;;;;;;-0.41;50.92;102323.26;116901;1188;21857;-50
2022/03/15 05:00:40;;;;;;;20.60;12.50;;;;;;;-0.36;50.67;102323.30;116902;1189;22828;-51
2022/03/15 05:03:09;;;;;;;20.90;11.80;;;;;;;-0.29;50.75;102317.83;116927;1188;21861;-65
2022/03/15 05:05:38;;;;;;;18.20;12.30;;;;;;;-0.21;50.61;102316.61;116950;1188;24181;-49
2022/03/15 05:08:06;;;;;;;37.10;14.50;;;;;;;-0.10;50.89;102321.07;116934;1188;23451;-63
2022/03/15 05:13:23;;;;;;;20.90;12.60;;;;;;;0.11;50.67;102321.89;116857;1188;22944;-62
2022/03/15 05:15:52;;;;;;;20.30;12.20;;;;;;;0.23;51.11;102323.45;116894;1189;21913;-63
2022/03/15 05:18:21;;;;;;;23.00;13.00;;;;;;;0.33;51.07;102325.63;116903;1188;21871;-62
2022/03/15 05:20:53;;;;;;;21.00;13.10;;;;;;;0.45;51.34;102320.61;116898;1188;24233;-51
2022/03/15 05:23:21;;;;;;;20.40;11.60;;;;;;;0.57;51.11;102321.86;116911;1189;24192;-62
2022/03/15 05:25:50;;;;;;;19.40;11.20;;;;;;;0.68;51.23;102319.96;116901;1189;23478;-62
2022/03/15 05:28:19;;;;;;;18.20;11.90;;;;;;;0.83;51.25;102318.54;116870;1188;21886;-52
2022/03/15 05:30:56;;;;;;;19.00;11.60;;;;;;;0.98;51.26;102314.60;116834;1188;23452;-62
2022/03/15 05:33:30;;;;;;;21.10;12.00;;;;;;;1.12;51.45;102316.95;116902;1188;23450;-51
2022/03/15 05:35:59;;;;;;;20.50;11.60;;;;;;;1.29;51.25;102319.61;116870;1188;21901;-62
2022/03/15 05:38:30;;;;;;;20.90;12.00;;;;;;;1.43;51.44;102315.92;116795;1188;21862;-52
2022/03/15 05:40:59;;;;;;;18.50;12.40;;;;;;;1.60;51.70;102318.39;116816;1188;23724;-51
2022/03/15 05:43:47;;;;;;;20.10;13.30;;;;;;;1.78;51.70;102319.76;116804;1188;22820;-62
2022/03/15 05:46:16;;;;;;;21.70;12.50;;;;;;;1.96;51.59;102316.55;116733;1188;23577;-62
2022/03/15 05:48:46;;;;;;;20.70;13.30;;;;;;;2.14;51.80;102318.40;116844;1186;23641;-52
2022/03/15 05:51:14;;;;;;;22.50;14.00;;;;;;;2.32;51.73;102311.04;116934;1188;22617;-61
2022/03/15 05:53:45;;;;;;;18.10;11.10;;;;;;;2.46;51.80;102305.84;116864;1188;21917;-62
2022/03/15 05:56:14;;;;;;;22.40;12.90;;;;;;;2.58;51.54;102301.94;116949;1188;22011;-52
2022/03/15 05:58:46;;;;;;;23.50;14.70;;;;;;;2.69;51.75;102296.79;116875;1184;23567;-51
2022/03/15 06:01:19;;;;;;;22.10;13.20;;;;;;;2.82;51.80;102295.73;116916;1188;21853;-62
2022/03/15 06:03:49;;;;;;;20.00;12.00;;;;;;;2.96;51.85;102297.63;116785;1189;23576;-51
2022/03/15 06:06:18;;;;;;;20.20;12.00;;;;;;;3.10;51.85;102298.66;116861;1189;23566;-62
2022/03/15 06:08:48;;;;;;;20.70;12.60;;;;;;;3.25;52.01;102299.04;116830;1188;22084;-50
2022/03/15 06:11:39;;;;;;;21.80;12.50;;;;;;;3.42;51.90;102293.73;116666;1189;23557;-51
2022/03/15 06:14:09;;;;;;;17.20;11.20;;;;;;;3.57;51.94;102291.88;117528;1188;24148;-52
2022/03/15 06:16:37;;;;;;;17.40;11.70;;;;;;;3.72;51.85;102296.22;117543;1189;22952;-50
2022/03/15 06:19:06;;;;;;;19.50;12.10;;;;;;;3.86;52.01;102299.98;116800;1188;22875;-62
2022/03/15 06:21:35;;;;;;;20.00;12.40;;;;;;;4.02;51.88;102297.06;116813;1188;23587;-61
2022/03/15 06:24:04;;;;;;;18.60;11.80;;;;;;;4.22;52.09;102292.56;116798;1188;23460;-50
2022/03/15 06:26:35;;;;;;;19.50;11.80;;;;;;;4.40;52.05;102290.92;116981;1188;23475;-61
2022/03/15 06:29:06;;;;;;;18.60;11.70;;;;;;;4.58;52.17;102285.09;116923;1188;24720;-65
2022/03/15 06:31:35;;;;;;;18.00;11.20;;;;;;;4.82;52.33;102285.21;116861;1191;22962;-61
2022/03/15 06:34:04;;;;;;;14.40;9.90;;;;;;;5.01;52.43;102283.04;116879;1188;22977;-61
2022/03/15 06:36:34;;;;;;;14.60;9.30;;;;;;;5.19;52.27;102280.61;117143;1188;21849;-51
2022/03/15 06:39:08;;;;;;;13.00;8.80;;;;;;;5.36;52.10;102273.84;116828;1188;21864;-62
2022/03/15 06:41:38;;;;;;;15.00;9.80;;;;;;;5.56;52.32;102267.79;118923;1188;22214;-51
2022/03/15 06:44:07;;;;;;;18.00;10.20;;;;;;;5.74;52.46;102265.53;118867;1188;21785;-66
2022/03/15 06:46:35;;;;;;;17.10;9.80;;;;;;;5.96;52.43;102263.41;118844;1189;21834;-53
2022/03/15 06:49:04;;;;;;;14.10;9.30;;;;;;;6.14;52.03;102261.96;118933;1188;21778;-63
2022/03/15 06:51:32;;;;;;;13.40;9.60;;;;;;;6.32;52.32;102258.77;118902;1188;21782;-53
2022/03/15 06:54:01;;;;;;;15.80;9.80;;;;;;;6.47;52.40;102254.42;117357;1189;21868;-63
2022/03/15 06:56:32;;;;;;;14.30;9.30;;;;;;;6.68;52.07;102250.43;116839;1188;23507;-50
2022/03/15 06:59:00;;;;;;;15.90;9.40;;;;;;;6.82;52.03;102247.23;116787;1188;21857;-61
2022/03/15 07:01:29;;;;;;;13.90;9.20;;;;;;;6.96;51.98;102246.63;116798;1189;24217;-51
2022/03/15 07:03:59;;;;;;;18.40;10.20;;;;;;;7.14;52.32;102247.90;116793;1188;21861;-51
2022/03/15 07:06:27;;;;;;;14.90;9.60;;;;;;;7.30;51.87;102245.26;116882;1188;21857;-51
2022/03/15 07:08:55;;;;;;;15.40;10.00;;;;;;;7.50;52.15;102247.61;116958;1188;23502;-62
2022/03/15 07:11:24;;;;;;;16.00;10.20;;;;;;;7.65;51.98;102248.41;116858;1188;24142;-61
2022/03/15 07:13:54;;;;;;;17.80;11.20;;;;;;;7.73;51.76;102241.13;116815;1186;21909;-52
2022/03/15 07:16:23;;;;;;;17.80;10.70;;;;;;;7.89;51.88;102237.73;116925;1188;21855;-53
2022/03/15 07:18:57;;;;;;;13.60;9.60;;;;;;;8.13;52.02;102238.05;116895;1188;22972;-62
2022/03/15 07:21:26;;;;;;;17.60;10.40;;;;;;;8.34;52.11;102238.80;116849;1188;21899;-54
2022/03/15 07:23:58;;;;;;;15.00;9.80;;;;;;;8.47;52.08;102236.00;116844;1191;22697;-64
2022/03/15 07:26:27;;;;;;;14.10;10.20;;;;;;;8.56;51.81;102238.70;116808;1188;21845;-64
2022/03/15 07:28:55;;;;;;;16.20;11.40;;;;;;;8.64;51.94;102237.85;116924;1188;21864;-64
2022/03/15 07:31:24;;;;;;;15.60;10.20;;;;;;;8.67;51.74;102231.27;116938;1189;21859;-63
2022/03/15 07:33:53;;;;;;;16.40;10.20;;;;;;;8.76;51.97;102234.84;116880;1188;23494;-54
2022/03/15 07:36:22;;;;;;;14.20;9.90;;;;;;;8.86;51.90;102234.16;116838;1188;21859;-53
2022/03/15 07:38:51;;;;;;;14.90;9.70;;;;;;;8.97;51.83;102234.30;116893;1188;23473;-63
2022/03/15 07:41:23;;;;;;;12.30;8.70;;;;;;;8.99;51.60;102233.45;116893;1188;22812;-53
2022/03/15 07:43:52;;;;;;;15.80;9.90;;;;;;;9.01;51.84;102227.91;116846;1188;21971;-64
2022/03/15 07:46:23;;;;;;;16.50;11.00;;;;;;;9.21;51.91;102221.89;116864;1188;24174;-53
2022/03/15 07:48:52;;;;;;;13.50;10.10;;;;;;;9.44;51.94;102212.41;118248;1187;21855;-53
2022/03/15 07:51:21;;;;;;;15.20;10.70;;;;;;;9.53;51.67;102209.27;117892;1188;23584;-51
2022/03/15 07:53:55;;;;;;;20.10;10.50;;;;;;;9.53;51.65;102211.89;116855;1184;21856;-62
2022/03/15 07:56:23;;;;;;;19.20;10.20;;;;;;;9.59;51.65;102209.39;116885;1184;23808;-53
2022/03/15 07:58:52;;;;;;;15.80;9.60;;;;;;;9.65;51.51;102204.09;116930;1188;23481;-63
2022/03/15 08:01:20;;;;;;;16.10;10.90;;;;;;;9.72;51.65;102204.75;116903;1188;23477;-63
2022/03/15 08:03:50;;;;;;;14.10;9.60;;;;;;;9.87;51.71;102206.45;116941;1188;24271;-53
2022/03/15 08:06:19;;;;;;;15.70;10.60;;;;;;;9.88;51.40;102205.95;116861;1188;23580;-54
2022/03/15 08:08:48;;;;;;;16.10;10.50;;;;;;;9.90;51.58;102206.70;116885;1189;21854;-62
2022/03/15 08:11:17;;;;;;;14.50;10.10;;;;;;;10.00;51.63;102199.17;116909;1184;21888;-54
2022/03/15 08:13:48;;;;;;;15.20;10.30;;;;;;;10.13;51.45;102199.94;116841;1189;23547;-64
2022/03/15 08:16:17;;;;;;;16.30;10.50;;;;;;;10.23;51.59;102194.16;116854;1188;21857;-63
2022/03/15 08:18:46;;;;;;;14.50;9.90;;;;;;;10.31;51.48;102195.18;116936;1188;23581;-63
2022/03/15 08:21:16;;;;;;;15.30;10.50;;;;;;;10.37;51.57;102190.37;116860;1188;24159;-55
2022/03/15 08:23:45;;;;;;;15.80;11.20;;;;;;;10.40;51.35;102188.87;116845;1188;23557;-54
2022/03/15 08:26:14;;;;;;;14.30;10.30;;;;;;;10.42;51.35;102194.52;116937;1188;23366;-63
2022/03/15 08:28:42;;;;;;;18.80;11.20;;;;;;;10.44;51.25;102191.03;116870;1189;23658;-55
2022/03/15 08:31:11;;;;;;;14.30;9.70;;;;;;;10.54;51.39;102190.17;116851;1189;24282;-64
2022/03/15 08:33:40;;;;;;;16.40;10.60;;;;;;;10.65;51.34;102187.18;116631;1190;24053;-54
2022/03/15 08:36:09;;;;;;;14.30;9.40;;;;;;;10.67;51.27;102185.12;116727;1189;23585;-64
2022/03/15 08:38:38;;;;;;;15.60;10.10;;;;;;;10.79;51.41;102182.31;116801;1189;21860;-63
2022/03/15 08:41:08;;;;;;;14.40;9.90;;;;;;;10.97;51.39;102182.60;117333;1189;23342;-61
2022/03/15 08:43:48;;;;;;;;;;;;;;;11.10;51.14;102174.16;116789;1189;24201;-52
2022/03/15 08:46:18;;;;;;;14.70;9.70;;;;;;;11.20;51.06;102167.98;116863;1189;24270;-64
2022/03/15 08:48:47;;;;;;;12.70;9.60;;;;;;;11.34;51.31;102169.39;116946;1189;22962;-54
2022/03/15 08:51:16;;;;;;;15.70;9.60;;;;;;;11.47;51.01;102168.52;116869;1184;21848;-54
2022/03/15 08:53:45;;;;;;;12.60;9.50;;;;;;;11.63;51.30;102168.88;116868;1189;23455;-55
2022/03/15 08:56:13;;;;;;;13.70;9.20;;;;;;;11.76;51.31;102160.77;116840;1189;23454;-62
2022/03/15 08:58:42;;;;;;;13.20;9.60;;;;;;;11.86;50.86;102160.88;116955;1189;23479;-63
2022/03/15 09:01:11;;;;;;;14.40;8.90;;;;;;;11.93;50.93;102161.13;116991;1189;21864;-51
2022/03/15 09:04:02;;;;;;;14.20;9.60;;;;;;;11.92;50.50;102152.33;116826;1189;21880;-64
2022/03/15 09:06:31;;;;;;;17.40;9.60;;;;;;;12.04;50.98;102147.38;116875;1189;21856;-54
2022/03/15 09:09:02;;;;;;;13.10;8.60;;;;;;;12.15;50.76;102148.89;116947;1188;21878;-67
2022/03/15 09:11:32;;;;;;;14.60;9.30;;;;;;;12.18;50.66;102144.67;116836;1189;23560;-54
2022/03/15 09:14:02;;;;;;;14.90;9.90;;;;;;;12.18;50.56;102140.98;116837;1189;23559;-54
2022/03/15 09:16:32;;;;;;;14.20;9.60;;;;;;;12.15;50.60;102140.27;116850;1189;23560;-64
2022/03/15 09:19:00;;;;;;;14.30;9.10;;;;;;;12.18;50.51;102137.47;116821;1189;21858;-68
2022/03/15 09:21:29;;;;;;;17.20;10.30;;;;;;;12.34;50.66;102136.91;116851;1189;22929;-54
2022/03/15 09:23:58;;;;;;;14.90;9.60;;;;;;;12.38;50.65;102132.53;116810;1189;21874;-54
2022/03/15 09:26:27;;;;;;;12.90;9.40;;;;;;;12.39;50.52;102131.84;116829;1189;21866;-64
2022/03/15 09:28:56;;;;;;;12.20;7.80;;;;;;;12.43;50.60;102127.64;116865;1188;22632;-53
2022/03/15 09:31:26;;;;;;;12.70;9.20;;;;;;;12.55;50.50;102128.45;116838;1188;21907;-55
2022/03/15 09:33:55;;;;;;;15.90;10.80;;;;;;;12.66;50.74;102129.94;116865;1188;22558;-55
2022/03/15 09:36:24;;;;;;;15.50;10.80;;;;;;;12.77;50.46;102131.61;116996;1188;21892;-54
2022/03/15 09:38:57;;;;;;;14.90;10.10;;;;;;;12.76;50.29;102127.38;116869;1188;23560;-55
2022/03/15 09:41:27;;;;;;;14.40;10.00;;;;;;;12.66;50.14;102124.48;116919;1188;23569;-53
2022/03/15 09:43:56;;;;;;;14.40;10.90;;;;;;;12.55;50.28;102115.23;116901;1188;21872;-55
2022/03/15 09:46:25;;;;;;;17.60;11.50;;;;;;;12.50;50.30;102119.95;116764;1188;21857;-55
2022/03/15 09:49:14;;;;;;;18.70;11.90;;;;;;;12.59;50.43;102115.27;116839;1189;23557;-62
2022/03/15 09:51:43;;;;;;;15.70;10.10;;;;;;;12.54;50.11;102111.54;116784;1188;23482;-62
2022/03/15 09:54:13;;;;;;;16.70;11.50;;;;;;;12.57;50.34;102104.34;116822;1189;21863;-62
2022/03/15 09:56:41;;;;;;;17.80;11.70;;;;;;;12.63;50.32;102102.09;116846;1189;21873;-54
2022/03/15 09:59:18;;;;;;;14.40;10.80;;;;;;;12.66;50.22;102096.47;116878;1188;21856;-53
2022/03/15 10:01:51;;;;;;;18.60;12.80;;;;;;;12.81;50.49;102090.92;116913;1188;21870;-54
2022/03/15 10:04:21;;;;;;;16.60;11.30;;;;;;;12.91;50.16;102086.05;118147;1188;22610;-53
2022/03/15 10:06:51;;;;;;;15.50;11.60;;;;;;;12.95;50.19;102080.27;116967;1189;24334;-54
2022/03/15 10:09:21;;;;;;;16.40;11.90;;;;;;;13.07;50.13;102076.27;116945;1188;21864;-63
2022/03/15 10:11:52;;;;;;;17.90;13.60;;;;;;;13.27;49.92;102079.52;116881;1188;23583;-54
2022/03/15 10:14:21;;;;;;;18.40;13.20;;;;;;;13.41;50.07;102080.11;116738;1188;24210;-63
2022/03/15 10:17:01;;;;;;;15.90;12.00;;;;;;;13.61;50.03;102075.24;116821;1189;21970;-62
2022/03/15 10:19:30;;;;;;;17.70;12.50;;;;;;;13.77;49.84;102078.97;116874;1189;23481;-62
2022/03/15 10:22:00;;;;;;;16.70;11.70;;;;;;;13.83;49.94;102071.56;116863;1189;22934;-54
2022/03/15 10:24:30;;;;;;;17.40;12.00;;;;;;;13.94;49.96;102068.04;116812;1189;22649;-63
2022/03/15 10:27:02;;;;;;;17.50;12.80;;;;;;;13.91;49.79;102064.34;116932;1189;23569;-62
2022/03/15 10:29:31;;;;;;;16.10;11.00;;;;;;;13.90;49.68;102055.88;116850;1188;23445;-62
2022/03/15 10:32:02;;;;;;;17.50;11.70;;;;;;;13.99;49.73;102051.99;116820;1189;22956;-54
2022/03/15 10:34:31;;;;;;;15.90;11.80;;;;;;;14.11;49.27;102048.82;116780;1185;22937;-54
2022/03/15 10:36:59;;;;;;;17.40;11.50;;;;;;;14.27;49.62;102041.56;116863;1189;23531;-65
2022/03/15 10:39:28;;;;;;;17.80;12.40;;;;;;;14.39;49.40;102038.72;116895;1189;23472;-63
2022/03/15 10:42:03;;;;;;;15.40;12.50;;;;;;;14.53;49.53;102034.99;116822;1189;23021;-62
2022/03/15 10:44:39;;;;;;;16.80;11.90;;;;;;;14.64;49.47;102030.55;116920;1189;22910;-53
2022/03/15 10:47:08;;;;;;;15.70;11.20;;;;;;;14.83;49.53;102022.73;116871;1189;21986;-62
2022/03/15 10:49:50;;;;;;;16.20;11.60;;;;;;;14.83;49.25;102022.38;116755;1190;23649;-64
2022/03/15 10:52:29;;;;;;;14.00;9.90;;;;;;;14.84;49.00;102021.67;116859;1189;22945;-53
2022/03/15 10:55:10;;;;;;;17.20;11.50;;;;;;;15.11;49.48;102014.85;116707;1189;23454;-63
2022/03/15 10:57:51;;;;;;;14.20;9.20;;;;;;;15.34;49.47;102007.98;116809;1189;23458;-54
2022/03/15 11:00:22;;;;;;;14.40;9.40;;;;;;;15.48;48.83;102000.30;116834;1189;22886;-55
2022/03/15 11:02:51;;;;;;;16.40;9.80;;;;;;;15.56;48.62;101998.82;116898;1189;23600;-54
2022/03/15 11:05:33;;;;;;;14.40;10.30;;;;;;;15.55;48.53;101994.23;116722;1189;22628;-55
2022/03/15 11:08:14;;;;;;;14.00;9.60;;;;;;;15.55;48.45;101985.74;116714;1189;21861;-66
2022/03/15 11:11:06;;;;;;;;;;;;;;;15.77;48.87;101984.87;116909;1189;23539;-55
2022/03/15 11:13:35;;;;;;;10.40;7.70;;;;;;;15.90;48.43;101981.23;116850;1188;23469;-63
2022/03/15 11:16:04;;;;;;;12.30;9.40;;;;;;;15.90;48.33;101983.19;116832;1188;23451;-53
2022/03/15 11:18:38;;;;;;;11.80;8.40;;;;;;;15.93;48.04;101972.36;116852;1189;24182;-66
2022/03/15 11:21:09;;;;;;;11.70;8.50;;;;;;;15.99;48.34;101968.95;116806;1189;24178;-55